Time;durP1;ratioP1;P1;durP2;ratioP2;P2;SDS_P1;SDS_P2;PMS_P1;PMS_P2;Temp;Humidity;BMP_temperature;BMP_pressure;BME280_temperature;BME280_humidity;BME280_pressure;Samples;Min_cycle;Max_cycle;Signal;HPM_P1;HPM_P2
2022/05/21 00:01:09;;;;;;;12.93;4.30;;;;;;;14.64;100.00;99616.89;1660649;85;21047;-70
2022/05/21 00:03:36;;;;;;;9.10;4.28;;;;;;;14.62;100.00;99612.19;1638648;85;21067;-71
2022/05/21 00:06:03;;;;;;;11.70;4.80;;;;;;;14.59;100.00;99609.38;1660630;85;21553;-70
2022/05/21 00:08:30;;;;;;;12.28;4.10;;;;;;;14.57;100.00;99603.78;1679931;85;21399;-70
2022/05/21 00:10:57;;;;;;;8.33;3.55;;;;;;;14.55;100.00;99610.78;1660493;84;21035;-70
2022/05/21 00:13:27;;;;;;;11.10;4.28;;;;;;;14.54;100.00;99605.58;1679787;85;21063;-69
2022/05/21 00:15:55;;;;;;;10.28;4.15;;;;;;;14.53;100.00;99607.97;1660693;85;21058;-70
2022/05/21 00:18:22;;;;;;;11.57;3.98;;;;;;;14.49;100.00;99602.11;1660706;85;21087;-68
2022/05/21 00:20:50;;;;;;;9.88;4.22;;;;;;;14.43;100.00;99595.62;1680080;85;21553;-69
2022/05/21 00:23:30;;;;;;;9.13;4.20;;;;;;;14.43;100.00;99594.26;1679713;85;21122;-70
2022/05/21 00:26:02;;;;;;;12.25;4.58;;;;;;;14.38;100.00;99596.76;1680060;85;21043;-70
2022/05/21 00:28:28;;;;;;;13.98;6.05;;;;;;;14.32;100.00;99585.33;1634109;87;21082;-69
2022/05/21 00:30:56;;;;;;;10.15;5.50;;;;;;;14.26;100.00;99574.47;1660857;86;21054;-70
2022/05/21 00:33:23;;;;;;;11.50;5.28;;;;;;;14.14;100.00;99566.89;1656348;87;20992;-70
2022/05/21 00:35:50;;;;;;;13.58;6.85;;;;;;;14.14;100.00;99566.89;1656394;87;21597;-69
2022/05/21 00:38:17;;;;;;;14.18;6.47;;;;;;;14.09;100.00;99559.87;1656230;87;21039;-69
2022/05/21 00:40:45;;;;;;;11.18;5.20;;;;;;;14.05;100.00;99552.65;1656360;87;21066;-71
2022/05/21 00:43:52;;;;;;;12.23;6.08;;;;;;;14.01;100.00;99548.68;1656388;87;21029;-69
2022/05/21 00:46:23;;;;;;;12.35;6.72;;;;;;;13.98;100.00;99545.53;1624147;88;21548;-71
2022/05/21 00:49:18;;;;;;;11.28;6.00;;;;;;;13.93;100.00;99546.67;1624090;88;21114;-69
2022/05/21 00:52:04;;;;;;;15.05;7.12;;;;;;;13.86;100.00;99546.14;1586581;89;21132;-71
2022/05/21 00:54:39;;;;;;;16.62;7.78;;;;;;;13.83;100.00;99539.75;1596491;89;21067;-70
2022/05/21 00:57:15;;;;;;;15.05;8.15;;;;;;;13.80;100.00;99527.09;1617729;89;21064;-70
2022/05/21 00:59:48;;;;;;;13.55;6.90;;;;;;;13.78;100.00;99521.03;1617799;89;21083;-70
2022/05/21 01:02:34;;;;;;;12.15;5.85;;;;;;;13.76;100.00;99519.05;1576254;89;21612;-71
2022/05/21 01:05:02;;;;;;;8.68;4.78;;;;;;;13.74;100.00;99519.74;1561291;91;21146;-70
2022/05/21 01:07:29;;;;;;;9.80;4.92;;;;;;;13.72;100.00;99528.09;1561386;91;21110;-71
2022/05/21 01:09:58;;;;;;;9.08;5.03;;;;;;;13.72;100.00;99515.87;1581511;88;21119;-70
2022/05/21 01:12:27;;;;;;;9.98;4.70;;;;;;;13.73;100.00;99518.92;1561314;91;21637;-70
2022/05/21 01:14:58;;;;;;;10.38;5.17;;;;;;;13.75;100.00;99511.39;1548983;92;21018;-70
2022/05/21 01:17:26;;;;;;;11.90;5.10;;;;;;;13.74;100.00;99507.02;1519325;92;21078;-70
2022/05/21 01:20:00;;;;;;;9.68;4.65;;;;;;;13.75;100.00;99500.52;1557603;92;21046;-70
2022/05/21 01:22:29;;;;;;;9.35;4.90;;;;;;;13.76;100.00;99497.31;1538195;92;21069;-69
2022/05/21 01:24:56;;;;;;;7.22;4.53;;;;;;;13.75;100.00;99491.55;1538163;92;21006;-71
2022/05/21 01:27:24;;;;;;;10.63;4.78;;;;;;;13.75;100.00;99490.19;1557670;92;21535;-70
2022/05/21 01:29:51;;;;;;;5.65;4.10;;;;;;;13.74;100.00;99477.63;1538015;92;21157;-71
2022/05/21 01:32:18;;;;;;;9.88;4.42;;;;;;;13.73;100.00;99480.88;1571854;89;21171;-72
2022/05/21 01:34:45;;;;;;;9.50;4.20;;;;;;;13.72;100.00;99488.70;1598575;90;21595;-70
2022/05/21 01:37:12;;;;;;;10.63;4.53;;;;;;;13.72;100.00;99474.29;1588838;89;21066;-71
2022/05/21 01:39:39;;;;;;;8.05;4.42;;;;;;;13.72;100.00;99475.64;1598449;90;21015;-71
2022/05/21 01:42:08;;;;;;;7.55;4.40;;;;;;;13.70;100.00;99466.34;1609858;89;21077;-71
2022/05/21 01:44:38;;;;;;;8.25;4.35;;;;;;;13.66;100.00;99462.37;1588747;89;21576;-71
2022/05/21 01:47:11;;;;;;;9.88;4.70;;;;;;;13.64;100.00;99459.85;1589089;89;21070;-71
2022/05/21 01:49:38;;;;;;;6.40;3.87;;;;;;;13.62;100.00;99455.68;1581656;90;21065;-70
2022/05/21 01:52:06;;;;;;;7.15;4.10;;;;;;;13.58;100.00;99449.82;1585959;89;21086;-71
2022/05/21 01:54:34;;;;;;;8.35;4.62;;;;;;;13.56;100.00;99451.87;1607057;89;21081;-70
2022/05/21 01:57:02;;;;;;;8.83;4.10;;;;;;;13.53;100.00;99439.23;1606986;88;22871;-71
2022/05/21 01:59:30;;;;;;;6.00;3.92;;;;;;;13.48;100.00;99434.43;1619006;87;21567;-71
2022/05/21 02:01:57;;;;;;;9.90;4.58;;;;;;;13.44;100.00;99428.58;1608323;88;21063;-73
2022/05/21 02:04:24;;;;;;;6.42;3.62;;;;;;;13.41;100.00;99422.72;1629940;88;21015;-71
2022/05/21 02:06:52;;;;;;;7.72;3.90;;;;;;;13.36;100.00;99415.17;1629646;88;21062;-70
2022/05/21 02:09:18;;;;;;;7.30;3.72;;;;;;;13.32;100.00;99410.38;1608331;88;21050;-71
2022/05/21 02:11:46;;;;;;;8.38;3.95;;;;;;;13.27;100.00;99407.70;1629667;88;22485;-71
2022/05/21 02:14:14;;;;;;;10.68;4.12;;;;;;;13.22;100.00;99397.14;1626740;85;21029;-71
2022/05/21 02:16:41;;;;;;;7.75;3.87;;;;;;;13.18;100.00;99394.00;1657087;87;21594;-70
2022/05/21 02:19:09;;;;;;;6.67;3.95;;;;;;;13.15;100.00;99394.92;1657240;87;21074;-71
2022/05/21 02:21:40;;;;;;;8.78;4.17;;;;;;;13.11;100.00;99385.83;1634923;87;21086;-70
2022/05/21 02:24:10;;;;;;;7.65;3.70;;;;;;;13.08;100.00;99384.03;1656932;87;21053;-70
2022/05/21 02:26:38;;;;;;;7.33;3.92;;;;;;;13.06;100.00;99375.27;1634941;87;21053;-71
2022/05/21 02:29:05;;;;;;;8.63;3.98;;;;;;;13.05;100.00;99370.37;1657097;87;21134;-69
2022/05/21 02:31:32;;;;;;;8.20;4.03;;;;;;;13.06;100.00;99370.66;1634573;87;21088;-72
2022/05/21 02:34:00;;;;;;;8.30;4.30;;;;;;;13.07;100.00;99366.92;1657144;87;21070;-70
2022/05/21 02:39:30;;;;;;;10.88;5.25;;;;;;;13.06;100.00;99350.31;1656831;87;21073;-70
2022/05/21 02:41:58;;;;;;;15.13;5.50;;;;;;;13.05;100.00;99350.02;1657159;87;21053;-70
2022/05/21 02:44:25;;;;;;;11.75;5.50;;;;;;;13.04;100.00;99340.19;1657098;87;21113;-71
2022/05/21 02:46:53;;;;;;;14.38;5.67;;;;;;;13.04;100.00;99338.83;1634309;86;21029;-71
2022/05/21 02:49:20;;;;;;;11.70;6.70;;;;;;;13.03;100.00;99329.03;1664228;85;21124;-69
2022/05/21 02:51:48;;;;;;;11.20;6.85;;;;;;;13.03;100.00;99334.45;1666651;85;21579;-71
2022/05/21 02:54:15;;;;;;;12.20;6.37;;;;;;;13.02;100.00;99321.92;1680183;85;21008;-70
2022/05/21 02:56:49;;;;;;;12.58;6.35;;;;;;;13.03;100.00;99309.17;1680060;85;21547;-70
2022/05/21 02:59:16;;;;;;;14.60;6.83;;;;;;;13.02;100.00;99306.98;1680294;85;21090;-70
2022/05/21 03:01:44;;;;;;;14.43;7.28;;;;;;;13.05;100.00;99303.02;1666630;85;21059;-70
2022/05/21 03:04:11;;;;;;;11.08;6.20;;;;;;;13.08;100.00;99295.33;1666732;86;21023;-70
2022/05/21 03:06:38;;;;;;;12.28;6.08;;;;;;;13.12;100.00;99298.47;1666846;85;21035;-71
2022/05/21 03:11:50;;;;;;;11.05;5.40;;;;;;;13.20;100.00;99290.64;1667024;86;21046;-70
2022/05/21 03:14:17;;;;;;;8.83;4.00;;;;;;;13.24;100.00;99290.53;1687078;84;21149;-70
2022/05/21 03:16:46;;;;;;;9.80;4.67;;;;;;;13.26;100.00;99287.09;1714116;84;21535;-70
2022/05/21 03:19:13;;;;;;;7.58;3.50;;;;;;;13.25;100.00;99284.90;1714161;84;21016;-70
2022/05/21 03:21:41;;;;;;;9.55;3.60;;;;;;;13.26;100.00;99279.80;1686257;84;21043;-70
2022/05/21 03:24:08;;;;;;;5.15;3.67;;;;;;;13.29;100.00;99275.82;1714023;83;21085;-71
2022/05/21 03:26:38;;;;;;;9.23;3.40;;;;;;;13.31;100.00;99261.55;1714286;84;21070;-71
2022/05/21 03:29:05;;;;;;;9.98;3.37;;;;;;;13.34;100.00;99259.78;1685951;84;21584;-70
2022/05/21 03:31:32;;;;;;;7.80;3.67;;;;;;;13.37;100.00;99249.01;1714418;83;21098;-70
2022/05/21 03:34:00;;;;;;;7.12;3.45;;;;;;;13.39;100.00;99240.16;1714215;84;21073;-70
2022/05/21 03:36:27;;;;;;;5.97;3.67;;;;;;;13.40;100.00;99237.73;1686252;84;21051;-70
2022/05/21 03:38:55;;;;;;;9.90;3.60;;;;;;;13.39;100.00;99229.30;1686655;84;21468;-71
2022/05/21 03:41:22;;;;;;;7.80;3.25;;;;;;;13.37;100.00;99225.42;1686315;84;21082;-70
2022/05/21 03:43:52;;;;;;;7.42;3.37;;;;;;;13.36;100.00;99226.45;1714117;84;21062;-72
2022/05/21 03:46:19;;;;;;;8.95;3.77;;;;;;;13.37;100.00;99225.92;1686494;84;21035;-71
2022/05/21 03:48:47;;;;;;;9.43;4.20;;;;;;;13.36;100.00;99223.75;1686558;83;21141;-70
2022/05/21 03:51:14;;;;;;;7.97;3.85;;;;;;;13.36;100.00;99214.77;1714360;84;20999;-71
2022/05/21 03:53:41;;;;;;;7.15;3.85;;;;;;;13.37;100.00;99203.70;1714375;83;21070;-70
2022/05/21 03:56:09;;;;;;;12.53;4.08;;;;;;;13.40;100.00;99202.44;1686289;84;21109;-71
2022/05/21 03:58:37;;;;;;;7.70;3.55;;;;;;;13.41;100.00;99194.09;1714578;83;21571;-69
2022/05/21 04:01:05;;;;;;;6.80;3.30;;;;;;;13.44;100.00;99185.53;1686359;84;21054;-70
2022/05/21 04:03:34;;;;;;;8.45;3.67;;;;;;;13.47;100.00;99179.68;1714431;84;21046;-72
2022/05/21 04:06:01;;;;;;;7.28;3.75;;;;;;;13.52;100.00;99180.39;1714562;84;21086;-70
2022/05/21 04:08:28;;;;;;;6.97;3.90;;;;;;;13.53;100.00;99173.06;1714359;84;21051;-70
2022/05/21 04:10:57;;;;;;;7.90;3.52;;;;;;;13.53;100.00;99171.20;1714340;83;21050;-69
2022/05/21 04:13:24;;;;;;;7.28;3.60;;;;;;;13.55;100.00;99165.03;1686289;84;21003;-71
2022/05/21 04:15:50;;;;;;;7.35;3.67;;;;;;;13.56;100.00;99170.76;1714474;83;21488;-70
2022/05/21 04:18:19;;;;;;;7.17;3.80;;;;;;;13.62;100.00;99164.50;1714369;83;21063;-71
2022/05/21 04:20:46;;;;;;;14.65;4.53;;;;;;;13.70;100.00;99151.20;1714558;83;21069;-70
2022/05/21 04:23:14;;;;;;;11.93;3.98;;;;;;;13.79;100.00;99147.73;1670693;86;21113;-70
2022/05/21 04:25:42;;;;;;;8.13;3.77;;;;;;;13.89;100.00;99150.84;1714231;84;21014;-71
2022/05/21 04:28:11;;;;;;;7.12;3.70;;;;;;;14.02;100.00;99154.02;1714480;83;21070;-70
2022/05/21 04:30:39;;;;;;;8.08;3.87;;;;;;;14.11;100.00;99164.13;1714547;84;21046;-71
2022/05/21 04:33:06;;;;;;;7.55;3.90;;;;;;;14.15;100.00;99161.31;1686283;84;21042;-70
2022/05/21 04:38:18;;;;;;;7.08;3.90;;;;;;;14.19;100.00;99169.33;1714461;84;21055;-70
2022/05/21 04:40:45;;;;;;;10.23;3.90;;;;;;;14.21;100.00;99171.30;1714167;84;20983;-70
2022/05/21 04:43:12;;;;;;;10.18;3.87;;;;;;;14.26;100.00;99161.16;1714404;84;20995;-70
2022/05/21 04:45:39;;;;;;;10.40;3.70;;;;;;;14.45;100.00;99165.66;1686158;84;21059;-70
2022/05/21 04:48:07;;;;;;;6.45;3.55;;;;;;;14.45;100.00;99165.66;1686030;84;21532;-70
2022/05/21 04:50:35;;;;;;;8.30;3.75;;;;;;;14.62;100.00;99163.27;1717132;83;21058;-69
2022/05/21 04:53:02;;;;;;;6.87;3.50;;;;;;;14.78;100.00;99161.41;1718404;83;21062;-72
2022/05/21 04:55:30;;;;;;;6.97;3.58;;;;;;;15.02;100.00;99165.72;1690537;83;21343;-70
2022/05/21 04:57:57;;;;;;;8.18;3.35;;;;;;;15.30;100.00;99185.70;1690439;83;21050;-71
2022/05/21 05:00:25;;;;;;;10.82;3.50;;;;;;;15.60;100.00;99174.12;1667439;83;21056;-71
2022/05/21 05:02:53;;;;;;;7.40;3.80;;;;;;;15.85;100.00;99214.98;1685991;84;20988;-70
2022/05/21 05:05:20;;;;;;;7.65;3.30;;;;;;;16.03;100.00;99242.78;1699366;83;21094;-71
2022/05/21 05:07:46;;;;;;;20.15;13.22;;;;;;;16.12;100.00;99255.05;1686168;83;20979;-71
2022/05/21 05:10:15;;;;;;;14.75;7.15;;;;;;;16.19;100.00;99275.98;1698372;83;21543;-71
2022/05/21 05:12:43;;;;;;;7.70;4.20;;;;;;;16.24;100.00;99289.23;1675860;84;21058;-71
2022/05/21 05:15:10;;;;;;;11.48;5.92;;;;;;;16.31;100.00;99290.00;1669290;85;21555;-75
2022/05/21 05:17:37;;;;;;;10.75;5.33;;;;;;;16.43;100.00;99298.78;1679962;84;21074;-71
2022/05/21 05:20:06;;;;;;;40.35;28.83;;;;;;;16.61;100.00;99304.25;1689647;85;21034;-74
2022/05/21 05:22:33;;;;;;;7.95;4.30;;;;;;;16.78;100.00;99312.63;1689595;85;21576;-73
2022/05/21 05:25:04;;;;;;;8.23;3.20;;;;;;;16.97;100.00;99319.48;1662904;85;21046;-70
2022/05/21 05:27:30;;;;;;;21.85;8.33;;;;;;;17.24;100.00;99321.30;1662439;85;21109;-70
2022/05/21 05:30:03;;;;;;;16.20;7.53;;;;;;;17.54;100.00;99321.27;1689717;84;21507;-73
2022/05/21 05:32:30;;;;;;;17.48;8.70;;;;;;;17.79;100.00;99328.44;1689795;85;21082;-70
2022/05/21 05:35:00;;;;;;;6.60;3.33;;;;;;;17.98;100.00;99336.88;1662702;85;21055;-73
2022/05/21 05:37:28;;;;;;;7.30;3.00;;;;;;;18.09;100.00;99348.89;1662680;85;21074;-72
2022/05/21 05:39:56;;;;;;;9.83;3.22;;;;;;;18.12;100.00;99359.91;1689686;84;21563;-72
2022/05/21 05:42:24;;;;;;;8.20;3.60;;;;;;;18.11;100.00;99353.58;1661871;85;21078;-71
2022/05/21 05:44:51;;;;;;;9.63;3.90;;;;;;;18.18;100.00;99353.47;1690172;84;21652;-73
2022/05/21 05:47:20;;;;;;;10.00;3.30;;;;;;;18.31;100.00;99354.61;1674726;84;21019;-74
2022/05/21 05:49:47;;;;;;;25.48;18.02;;;;;;;18.49;100.00;99355.02;1662479;85;21153;-70
2022/05/21 05:52:15;;;;;;;14.40;6.83;;;;;;;18.70;100.00;99363.14;1688861;85;21034;-74
2022/05/21 05:54:42;;;;;;;12.35;3.98;;;;;;;18.96;100.00;99361.81;1657192;85;21062;-73
2022/05/21 05:57:10;;;;;;;7.28;3.90;;;;;;;19.25;100.00;99370.59;1667777;85;21554;-70
2022/05/21 05:59:50;;;;;;;8.65;4.10;;;;;;;19.44;100.00;99373.94;1655749;85;21106;-70
2022/05/21 06:05:08;;;;;;;16.40;8.03;;;;;;;19.57;100.00;99379.14;1692824;85;21073;-72
2022/05/21 06:07:48;;;;;;;6.75;3.10;;;;;;;19.51;100.00;99378.22;1692634;85;21078;-70
2022/05/21 06:10:19;;;;;;;7.22;3.02;;;;;;;19.49;100.00;99378.98;1692411;84;21078;-70
2022/05/21 06:12:47;;;;;;;6.30;3.08;;;;;;;19.58;100.00;99375.30;1656469;85;21039;-72
2022/05/21 06:15:14;;;;;;;6.92;3.02;;;;;;;19.62;100.00;99377.01;1692532;85;21101;-71
2022/05/21 06:17:41;;;;;;;7.33;3.17;;;;;;;19.61;100.00;99376.73;1681290;84;21044;-71
2022/05/21 06:20:14;;;;;;;5.55;2.90;;;;;;;19.67;100.00;99371.62;1692853;85;21006;-71
2022/05/21 06:22:42;;;;;;;11.83;3.25;;;;;;;19.82;100.00;99362.88;1657053;86;21027;-70
2022/05/21 06:25:10;;;;;;;6.72;3.25;;;;;;;19.90;100.00;99366.04;1693088;84;21042;-72
2022/05/21 06:27:39;;;;;;;6.70;3.00;;;;;;;19.96;100.00;99356.52;1693005;85;21073;-70
2022/05/21 06:30:08;;;;;;;10.23;3.60;;;;;;;19.87;100.00;99354.19;1692755;85;21066;-73
2022/05/21 06:32:35;;;;;;;7.80;3.02;;;;;;;19.90;100.00;99341.87;1656016;86;21035;-72
2022/05/21 06:35:04;;;;;;;48.80;28.60;;;;;;;19.97;100.00;99346.64;1622754;85;21094;-71
2022/05/21 06:37:31;;;;;;;11.75;5.08;;;;;;;20.04;100.00;99345.97;1656504;85;21023;-70
2022/05/21 06:39:58;;;;;;;12.03;4.17;;;;;;;20.13;100.00;99338.11;1691780;84;21074;-72
2022/05/21 06:42:25;;;;;;;10.35;4.67;;;;;;;20.24;100.00;99337.20;1656101;86;21599;-71
2022/05/21 06:44:52;;;;;;;14.83;7.10;;;;;;;20.26;100.00;99340.52;1692794;84;21069;-70
2022/05/21 06:47:19;;;;;;;6.72;3.27;;;;;;;20.36;100.00;99334.36;1680703;84;21019;-71
2022/05/21 06:49:47;;;;;;;7.40;3.30;;;;;;;20.57;100.00;99329.14;1638825;86;21131;-71
2022/05/21 06:52:14;;;;;;;18.95;4.00;;;;;;;20.79;100.00;99323.70;1632734;86;21057;-71
2022/05/21 06:54:42;;;;;;;16.27;5.17;;;;;;;21.00;100.00;99322.86;1655473;85;21066;-71
2022/05/21 06:57:10;;;;;;;17.35;10.05;;;;;;;21.24;100.00;99326.67;1655401;86;21015;-70
2022/05/21 06:59:37;;;;;;;15.05;5.75;;;;;;;21.45;100.00;99322.22;1655959;86;21124;-70
2022/05/21 07:02:04;;;;;;;8.45;3.87;;;;;;;21.70;100.00;99311.20;1694203;84;21074;-69
2022/05/21 07:07:35;;;;;;;11.03;3.35;;;;;;;22.04;100.00;99317.78;1691859;84;21054;-71
2022/05/21 07:10:07;;;;;;;24.80;17.40;;;;;;;22.16;100.00;99312.36;1692766;84;21082;-69
2022/05/21 07:12:35;;;;;;;7.78;3.90;;;;;;;22.29;100.00;99318.00;1656153;85;21042;-71
2022/05/21 07:15:04;;;;;;;4.70;3.27;;;;;;;22.40;100.00;99314.76;1673285;85;21095;-71
2022/05/21 07:17:32;;;;;;;8.70;3.30;;;;;;;22.46;100.00;99307.34;1659654;85;21654;-71
2022/05/21 07:20:02;;;;;;;41.63;29.98;;;;;;;22.48;100.00;99305.16;1677859;85;21396;-70
2022/05/21 07:22:31;;;;;;;10.15;3.85;;;;;;;22.44;100.00;99312.30;1575253;90;21628;-70
2022/05/21 07:24:59;;;;;;;7.90;3.40;;;;;;;22.43;100.00;99303.74;1575262;90;21140;-69
2022/05/21 07:27:27;;;;;;;10.15;3.20;;;;;;;22.51;100.00;99308.75;1575706;91;21112;-71
2022/05/21 07:29:56;;;;;;;13.05;5.83;;;;;;;22.49;100.00;99304.89;1576441;91;21060;-70
2022/05/21 07:32:24;;;;;;;10.60;5.20;;;;;;;22.43;100.00;99299.61;1573135;91;21143;-72
2022/05/21 07:35:07;;;;;;;81.22;59.05;;;;;;;22.41;100.00;99297.13;1576766;91;22391;-72
2022/05/21 07:37:35;;;;;;;;;;;;;;;22.43;100.00;99300.43;1553063;92;21158;-71
2022/05/21 07:40:03;;;;;;;12.45;3.70;;;;;;;22.45;100.00;99297.41;1551265;92;20479;-72
2022/05/21 07:42:31;;;;;;;4.75;3.30;;;;;;;22.57;100.00;99291.14;1551176;92;21065;-71
2022/05/21 07:44:59;;;;;;;7.85;3.00;;;;;;;22.70;100.00;99285.67;1539166;92;21073;-71
2022/05/21 07:47:26;;;;;;;6.17;3.65;;;;;;;22.96;100.00;99286.59;1534830;92;21090;-71
2022/05/21 07:49:56;;;;;;;10.93;3.95;;;;;;;23.23;100.00;99285.06;1507599;93;21129;-72
2022/05/21 07:52:27;;;;;;;10.45;3.40;;;;;;;23.54;100.00;99282.88;1519857;93;22273;-72
2022/05/21 07:54:56;;;;;;;8.63;3.40;;;;;;;23.84;100.00;99275.18;1535528;92;21028;-70
2022/05/21 07:57:23;;;;;;;5.35;3.27;;;;;;;23.97;100.00;99269.64;1540476;92;21139;-70
2022/05/21 07:59:50;;;;;;;7.10;3.25;;;;;;;23.96;100.00;99277.66;1532129;92;21111;-71
2022/05/21 08:02:17;;;;;;;7.95;3.40;;;;;;;23.95;100.00;99274.05;1507110;95;21071;-72
2022/05/21 08:04:47;;;;;;;7.33;3.12;;;;;;;23.95;100.00;99278.76;1535195;93;21113;-73
2022/05/21 08:07:14;;;;;;;7.37;3.67;;;;;;;23.90;100.00;99269.91;1535136;93;21063;-70
2022/05/21 08:09:43;;;;;;;9.18;3.20;;;;;;;23.90;100.00;99270.48;1535354;93;21099;-71
2022/05/21 08:12:14;;;;;;;24.40;13.40;;;;;;;23.94;100.00;99270.19;1543095;92;21179;-71
2022/05/21 08:14:43;;;;;;;11.12;4.50;;;;;;;24.02;100.00;99265.48;1523007;93;21564;-72
2022/05/21 08:17:11;;;;;;;21.75;14.28;;;;;;;24.07;100.00;99264.92;1543466;92;21119;-70
2022/05/21 08:19:37;;;;;;;20.72;14.55;;;;;;;24.15;100.00;99261.31;1553226;91;21577;-71
2022/05/21 08:27:36;;;;;;;13.00;4.47;;;;;;;24.50;100.00;99251.27;1565701;91;21790;-71
2022/05/21 08:30:12;;;;;;;13.30;3.92;;;;;;;24.64;100.00;99249.02;1561341;91;21009;-73
2022/05/21 08:32:40;;;;;;;7.28;3.22;;;;;;;24.62;100.00;99251.23;1568482;90;21219;-71
2022/05/21 08:35:10;;;;;;;28.23;19.12;;;;;;;24.57;100.00;99255.97;1537982;92;21063;-70
2022/05/21 08:37:38;;;;;;;13.78;5.20;;;;;;;24.56;100.00;99252.92;1548194;92;21039;-71
2022/05/21 08:40:06;;;;;;;7.05;3.58;;;;;;;24.67;100.00;99256.49;1547577;90;21063;-70
2022/05/21 08:42:43;;;;;;;6.92;3.25;;;;;;;24.68;100.00;99251.22;1579009;90;21058;-69
2022/05/21 08:45:26;;;;;;;29.15;21.00;;;;;;;24.68;100.00;99248.45;1578753;90;21626;-72
2022/05/21 08:48:02;;;;;;;28.32;22.67;;;;;;;24.71;100.00;99248.72;1608482;88;21077;-72
2022/05/21 08:53:05;;;;;;;7.28;3.30;;;;;;;24.62;100.00;99249.86;1626870;88;21086;-72
2022/05/21 09:01:11;;;;;;;10.75;3.08;;;;;;;25.07;100.00;99242.16;1557395;91;21187;-73
2022/05/21 09:03:39;;;;;;;11.50;3.90;;;;;;;25.22;100.00;99242.06;1566399;91;21110;-72
2022/05/21 09:06:29;;;;;;;11.78;6.50;;;;;;;25.30;100.00;99229.04;1566444;91;21041;-69
2022/05/21 09:09:44;;;;;;;7.65;3.20;;;;;;;25.48;100.00;99225.28;1557405;91;20998;-71
2022/05/21 09:12:42;;;;;;;8.95;3.20;;;;;;;25.71;100.00;99228.69;1556968;92;21026;-71
2022/05/21 09:15:12;;;;;;;8.60;3.33;;;;;;;25.82;100.00;99229.98;1550217;92;21510;-71
2022/05/21 09:17:42;;;;;;;9.90;4.25;;;;;;;25.87;100.00;99227.13;1542667;92;21086;-73
2022/05/21 09:20:13;;;;;;;6.28;3.60;;;;;;;25.95;100.00;99226.54;1553726;92;21069;-70
2022/05/21 09:22:40;;;;;;;11.65;3.75;;;;;;;25.91;100.00;99227.66;1520505;92;21087;-73
2022/05/21 09:25:20;;;;;;;9.90;3.47;;;;;;;25.84;100.00;99222.20;1555699;92;21074;-71
2022/05/21 09:27:49;;;;;;;7.08;3.20;;;;;;;25.82;100.00;99224.44;1508791;95;21541;-74
2022/05/21 09:30:32;;;;;;;7.80;3.52;;;;;;;26.03;100.00;99222.30;1514281;95;21186;-71
2022/05/21 09:33:22;;;;;;;8.60;3.42;;;;;;;26.31;100.00;99215.05;1514375;95;21158;-70
2022/05/21 09:35:56;;;;;;;7.37;3.37;;;;;;;26.73;100.00;99220.94;1514197;95;21123;-71
2022/05/21 09:38:28;;;;;;;12.73;3.50;;;;;;;26.83;100.00;99216.08;1514418;95;21572;-72
2022/05/21 09:41:22;;;;;;;13.53;3.83;;;;;;;26.87;100.00;99212.95;1514371;95;21134;-72
2022/05/21 09:47:15;;;;;;;9.83;5.35;;;;;;;26.43;100.00;99215.45;1514555;94;21057;-72
2022/05/21 09:49:43;;;;;;;24.35;15.55;;;;;;;26.04;100.00;99205.95;1508403;94;21065;-70
2022/05/21 09:52:22;;;;;;;10.93;4.30;;;;;;;25.93;100.00;99211.59;1462151;97;21148;-70
2022/05/21 09:54:49;;;;;;;8.38;3.67;;;;;;;26.03;100.00;99204.29;1486949;96;21102;-72
2022/05/21 09:57:26;;;;;;;10.45;3.30;;;;;;;26.12;100.00;99199.78;1492904;96;21122;-74
2022/05/21 10:00:18;;;;;;;7.85;3.30;;;;;;;26.31;100.00;99193.73;1492956;96;21646;-72
2022/05/21 10:02:47;;;;;;;9.35;4.17;;;;;;;26.38;100.00;99191.95;1539075;92;21137;-71
2022/05/21 10:05:31;;;;;;;4.85;3.35;;;;;;;26.43;100.00;99189.70;1560809;91;21049;-71
2022/05/21 10:11:28;;;;;;;18.87;4.50;;;;;;;26.88;100.00;99188.84;1600355;90;21083;-69
2022/05/21 10:14:18;;;;;;;8.85;5.75;;;;;;;27.20;100.00;99177.53;1606257;89;21066;-71
2022/05/21 10:16:58;;;;;;;9.35;3.42;;;;;;;27.41;100.00;99176.63;1610233;89;21077;-69
2022/05/21 10:19:54;;;;;;;4.87;3.20;;;;;;;27.59;100.00;99177.16;1604084;89;21110;-72
2022/05/21 10:23:02;;;;;;;10.45;4.65;;;;;;;27.37;95.92;99182.54;1600204;90;21042;-70
2022/05/21 10:25:37;;;;;;;10.32;3.47;;;;;;;27.04;96.72;99182.50;1598040;89;21587;-74
2022/05/21 10:28:20;;;;;;;8.28;3.30;;;;;;;26.83;98.17;99174.48;1542465;92;21077;-71
2022/05/21 10:31:09;;;;;;;13.00;3.70;;;;;;;26.66;97.88;99162.51;1526231;93;21186;-75
2022/05/21 10:33:54;;;;;;;10.65;3.37;;;;;;;26.67;100.00;99161.40;1495205;96;21177;-71
2022/05/21 10:36:41;;;;;;;9.45;3.60;;;;;;;26.77;100.00;99160.41;1495248;96;21223;-71
2022/05/21 10:39:39;;;;;;;13.72;3.77;;;;;;;26.93;100.00;99159.61;1496133;95;21623;-72
2022/05/21 10:42:39;;;;;;;18.37;4.00;;;;;;;27.27;100.00;99155.80;1497691;95;21138;-72
2022/05/21 10:45:36;;;;;;;29.63;17.45;;;;;;;27.64;100.00;99159.02;1516319;93;21650;-73
2022/05/21 10:48:15;;;;;;;7.55;3.87;;;;;;;27.89;95.71;99139.37;1475406;97;21657;-71
2022/05/21 10:51:09;;;;;;;6.40;3.20;;;;;;;28.13;94.63;99137.25;1480609;95;21164;-69
2022/05/21 10:53:48;;;;;;;11.53;3.98;;;;;;;28.41;95.95;99133.88;1477345;97;21152;-72
2022/05/21 10:56:47;;;;;;;10.30;4.20;;;;;;;28.67;94.86;99128.32;1510264;93;21129;-70
2022/05/21 10:59:38;;;;;;;7.53;3.40;;;;;;;29.08;94.62;99131.54;1505955;95;21100;-71
2022/05/21 11:02:44;;;;;;;8.03;3.70;;;;;;;29.33;85.72;99117.56;1505855;95;21550;-72
2022/05/21 11:05:54;;;;;;;21.12;4.53;;;;;;;29.27;84.02;99111.86;1489224;95;21073;-72
2022/05/21 11:08:43;;;;;;;10.60;3.70;;;;;;;29.18;85.18;99128.54;1507368;95;21550;-73
2022/05/21 11:11:16;;;;;;;11.55;5.40;;;;;;;29.20;84.00;99105.92;1509725;94;21102;-71
2022/05/21 11:14:11;;;;;;;9.78;4.12;;;;;;;29.13;86.59;99102.19;1460753;98;21656;-68
2022/05/21 11:16:59;;;;;;;11.88;4.22;;;;;;;29.08;88.64;99105.91;1502841;95;21254;-69
2022/05/21 11:19:48;;;;;;;13.90;5.90;;;;;;;28.98;85.46;99101.99;1455978;99;21146;-70
2022/05/21 11:22:19;;;;;;;8.50;4.60;;;;;;;28.71;83.07;99093.20;1412698;102;21151;-70
2022/05/21 11:25:17;;;;;;;33.90;23.18;;;;;;;28.40;86.90;99091.94;1413802;99;21159;-69
2022/05/21 11:28:29;;;;;;;30.75;26.12;;;;;;;28.33;90.45;99090.15;1467416;97;21155;-68
2022/05/21 11:31:00;;;;;;;6.17;3.98;;;;;;;28.35;92.11;99087.06;1497185;94;21093;-71
2022/05/21 11:39:03;;;;;;;10.25;3.83;;;;;;;28.23;91.20;99071.49;1505557;95;21097;-69
2022/05/21 11:42:09;;;;;;;8.08;3.67;;;;;;;28.17;87.47;99077.70;1505096;95;21662;-69
2022/05/21 11:45:00;;;;;;;8.08;3.55;;;;;;;28.02;88.65;99079.68;1505437;95;21512;-68
2022/05/21 11:47:39;;;;;;;6.95;3.75;;;;;;;27.76;90.20;99067.43;1504964;95;21128;-68
2022/05/21 11:50:17;;;;;;;7.67;3.45;;;;;;;27.70;93.31;99069.49;1504967;95;21629;-69
2022/05/21 11:53:04;;;;;;;13.65;4.28;;;;;;;27.82;89.91;99057.88;1507271;95;21113;-69
2022/05/21 11:55:57;;;;;;;13.15;3.55;;;;;;;27.88;86.42;99060.79;1509771;94;21646;-69
2022/05/21 11:58:54;;;;;;;8.78;3.30;;;;;;;27.94;88.16;99067.93;1532779;94;21573;-70
2022/05/21 12:01:42;;;;;;;8.08;3.50;;;;;;;28.06;89.48;99063.79;1533244;94;21606;-69
2022/05/21 12:04:43;;;;;;;5.40;3.40;;;;;;;28.20;90.55;99052.08;1554072;89;21612;-68
2022/05/21 12:07:19;;;;;;;15.08;3.90;;;;;;;28.21;90.58;99048.17;1606031;89;21109;-71
2022/05/21 12:10:03;;;;;;;6.42;3.10;;;;;;;28.23;89.04;99053.42;1603162;89;21511;-71
2022/05/21 12:12:30;;;;;;;12.25;3.33;;;;;;;28.50;86.91;99042.78;1585248;89;21585;-69
2022/05/21 12:15:16;;;;;;;7.17;3.30;;;;;;;28.83;82.08;99038.38;1546400;91;21090;-71
2022/05/21 12:17:55;;;;;;;9.50;3.67;;;;;;;28.98;80.39;99031.85;1525513;94;21100;-70
2022/05/21 12:20:46;;;;;;;8.45;3.47;;;;;;;28.74;78.95;99043.91;1510054;94;21142;-74
2022/05/21 12:23:17;;;;;;;11.97;3.65;;;;;;;28.33;78.54;99030.39;1510125;94;21074;-69
2022/05/21 12:25:56;;;;;;;7.78;3.50;;;;;;;27.99;82.98;99028.09;1440375;98;21609;-69
2022/05/21 12:28:32;;;;;;;6.72;3.50;;;;;;;28.03;85.36;99023.58;1444553;98;21084;-69